Time;durP1;ratioP1;P1;durP2;ratioP2;P2;SDS_P1;SDS_P2;PMS_P1;PMS_P2;Temp;Humidity;BMP_temperature;BMP_pressure;BME280_temperature;BME280_humidity;BME280_pressure;Samples;Min_cycle;Max_cycle;Signal;HPM_P1;HPM_P2
2021/10/19 00:04:50;;;;;;;25.40;22.38;;;;;;;;;;10320371;28;20084;-65
2021/10/19 00:09:49;;;;;;;22.73;19.63;;;;;;;;;;10320490;28;20536;-65
2021/10/19 00:14:47;;;;;;;23.20;19.38;;;;;;;;;;10301014;28;20076;-64
2021/10/19 00:19:47;;;;;;;22.10;19.02;;;;;;;;;;10319562;28;20071;-65
2021/10/19 00:24:45;;;;;;;23.60;18.83;;;;;;;;;;10320011;28;20075;-65
2021/10/19 00:29:43;;;;;;;24.38;19.20;;;;;;;;;;10317390;28;20068;-65
2021/10/19 00:34:42;;;;;;;23.23;18.98;;;;;;;;;;10319639;28;20068;-65
2021/10/19 00:39:41;;;;;;;20.33;17.25;;;;;;;;;;10318514;28;20083;-64
2021/10/19 00:44:39;;;;;;;19.40;17.08;;;;;;;;;;10301916;28;20076;-65
2021/10/19 00:49:38;;;;;;;18.67;15.98;;;;;;;;;;10316674;28;20146;-65
2021/10/19 00:54:36;;;;;;;21.20;15.52;;;;;;;;;;10319135;28;20477;-65
2021/10/19 00:59:37;;;;;;;22.60;16.20;;;;;;;;;;10316147;28;20524;-65
2021/10/19 01:04:35;;;;;;;19.15;15.07;;;;;;;;;;10317848;28;20529;-65
2021/10/19 01:09:33;;;;;;;18.60;14.88;;;;;;;;;;10315368;28;20077;-65
2021/10/19 01:14:32;;;;;;;19.60;15.65;;;;;;;;;;10313271;28;20624;-66
2021/10/19 01:19:31;;;;;;;18.42;14.95;;;;;;;;;;10293801;28;20067;-65
2021/10/19 01:24:31;;;;;;;15.85;14.25;;;;;;;;;;10300560;28;20459;-65
2021/10/19 01:29:30;;;;;;;16.52;14.45;;;;;;;;;;10295182;28;20072;-65
2021/10/19 01:34:32;;;;;;;17.80;13.85;;;;;;;;;;10297916;28;20099;-65
2021/10/19 01:39:32;;;;;;;19.65;15.70;;;;;;;;;;10310043;28;20064;-65
2021/10/19 01:44:34;;;;;;;18.98;15.40;;;;;;;;;;10316963;28;20091;-65
2021/10/19 01:49:32;;;;;;;19.92;16.33;;;;;;;;;;10295939;28;20083;-65
2021/10/19 01:54:31;;;;;;;19.85;15.25;;;;;;;;;;10293745;28;20087;-65
2021/10/19 01:59:30;;;;;;;18.13;15.73;;;;;;;;;;10314041;28;20071;-65
2021/10/19 02:04:28;;;;;;;18.27;16.33;;;;;;;;;;10315904;28;20072;-64
2021/10/19 02:09:26;;;;;;;20.05;16.65;;;;;;;;;;10315495;28;20106;-65
2021/10/19 02:14:26;;;;;;;22.15;17.33;;;;;;;;;;10302523;28;20466;-65
2021/10/19 02:19:25;;;;;;;20.45;17.50;;;;;;;;;;10301242;28;20064;-64
2021/10/19 02:24:24;;;;;;;23.27;16.30;;;;;;;;;;10299237;28;20067;-65
2021/10/19 02:29:22;;;;;;;20.48;17.00;;;;;;;;;;10294850;28;20501;-64
2021/10/19 02:34:23;;;;;;;20.13;16.25;;;;;;;;;;10291499;28;20073;-65
2021/10/19 02:39:21;;;;;;;20.90;16.77;;;;;;;;;;10233333;28;20053;-65
2021/10/19 02:44:19;;;;;;;20.17;16.83;;;;;;;;;;10287320;28;20489;-65
2021/10/19 02:49:17;;;;;;;20.70;17.00;;;;;;;;;;10296871;28;20067;-65
2021/10/19 02:54:18;;;;;;;19.30;16.67;;;;;;;;;;10299713;28;20075;-64
2021/10/19 02:59:16;;;;;;;19.52;17.50;;;;;;;;;;10309496;28;20064;-65
2021/10/19 03:04:14;;;;;;;23.35;19.02;;;;;;;;;;10314515;28;20502;-65
2021/10/19 03:09:13;;;;;;;24.20;19.67;;;;;;;;;;10300596;28;20506;-65
2021/10/19 03:14:12;;;;;;;22.27;19.98;;;;;;;;;;10301659;28;20068;-65
2021/10/19 03:19:11;;;;;;;21.95;18.52;;;;;;;;;;10297693;28;20076;-65
2021/10/19 03:24:09;;;;;;;25.27;21.25;;;;;;;;;;10302187;28;20103;-65
2021/10/19 03:29:07;;;;;;;21.77;19.48;;;;;;;;;;10312437;28;20116;-65
2021/10/19 03:34:07;;;;;;;24.20;19.98;;;;;;;;;;10313224;28;20083;-66
2021/10/19 03:39:05;;;;;;;24.33;21.65;;;;;;;;;;10300833;28;20072;-65
2021/10/19 03:44:04;;;;;;;21.75;19.55;;;;;;;;;;10311105;28;20064;-65
2021/10/19 03:49:02;;;;;;;25.67;21.42;;;;;;;;;;10313943;28;20536;-66
2021/10/19 03:54:02;;;;;;;125.55;112.63;;;;;;;;;;10286947;28;20065;-65
2021/10/19 03:59:00;;;;;;;129.35;116.18;;;;;;;;;;10294163;28;20469;-66
2021/10/19 04:03:59;;;;;;;63.25;56.70;;;;;;;;;;10295735;28;20079;-65
2021/10/19 04:08:57;;;;;;;40.47;36.30;;;;;;;;;;10292555;28;20514;-64
2021/10/19 04:13:57;;;;;;;34.80;23.88;;;;;;;;;;10302814;28;20340;-64
2021/10/19 04:18:55;;;;;;;24.58;21.70;;;;;;;;;;10302110;28;20071;-64
2021/10/19 04:23:53;;;;;;;28.70;21.73;;;;;;;;;;10301434;28;20087;-65
2021/10/19 04:28:52;;;;;;;24.08;21.48;;;;;;;;;;10312095;28;20502;-66
2021/10/19 04:33:51;;;;;;;25.17;22.48;;;;;;;;;;10316984;28;20064;-66
2021/10/19 04:38:50;;;;;;;31.88;27.55;;;;;;;;;;10315502;28;20072;-65
2021/10/19 04:43:48;;;;;;;37.90;30.38;;;;;;;;;;10314673;28;20061;-65
2021/10/19 04:48:46;;;;;;;35.60;28.27;;;;;;;;;;10308845;28;20071;-65
2021/10/19 04:53:46;;;;;;;32.65;25.30;;;;;;;;;;10313885;28;20071;-64
2021/10/19 04:58:44;;;;;;;35.53;24.30;;;;;;;;;;10306045;28;20087;-66
2021/10/19 05:03:46;;;;;;;28.25;23.52;;;;;;;;;;10300769;28;20154;-65
2021/10/19 05:08:47;;;;;;;33.00;25.33;;;;;;;;;;10308504;28;20508;-66
2021/10/19 05:13:45;;;;;;;39.55;35.33;;;;;;;;;;10304387;28;20056;-67
2021/10/19 05:18:44;;;;;;;30.85;27.27;;;;;;;;;;10286852;28;20492;-63
2021/10/19 05:23:42;;;;;;;25.35;22.45;;;;;;;;;;10282801;28;20064;-65
2021/10/19 05:28:43;;;;;;;34.25;23.33;;;;;;;;;;10296590;28;20518;-65
2021/10/19 05:33:41;;;;;;;30.25;22.88;;;;;;;;;;10287958;28;20068;-66
2021/10/19 05:38:39;;;;;;;26.75;19.95;;;;;;;;;;10290326;28;20501;-66
2021/10/19 05:43:38;;;;;;;24.80;20.05;;;;;;;;;;10293790;28;20102;-66
2021/10/19 05:48:37;;;;;;;24.80;20.92;;;;;;;;;;10302585;28;20076;-66
2021/10/19 05:53:36;;;;;;;29.50;20.45;;;;;;;;;;10284266;28;20076;-64
2021/10/19 05:58:34;;;;;;;31.85;20.45;;;;;;;;;;10280949;28;20466;-65
2021/10/19 06:03:32;;;;;;;39.25;21.40;;;;;;;;;;10283359;28;20073;-64
2021/10/19 06:08:35;;;;;;;35.03;21.08;;;;;;;;;;10294714;28;20549;-65
2021/10/19 06:13:34;;;;;;;35.92;20.77;;;;;;;;;;10306445;28;20506;-65
2021/10/19 06:18:32;;;;;;;27.95;22.85;;;;;;;;;;10294075;28;20552;-69
2021/10/19 06:23:31;;;;;;;29.00;22.02;;;;;;;;;;10298136;28;20061;-65
2021/10/19 06:28:31;;;;;;;32.20;21.58;;;;;;;;;;10297880;28;20496;-65
2021/10/19 06:33:29;;;;;;;26.02;20.98;;;;;;;;;;10294970;28;20080;-65
2021/10/19 06:38:27;;;;;;;21.08;18.83;;;;;;;;;;10235738;28;20072;-65
2021/10/19 06:43:26;;;;;;;25.73;19.65;;;;;;;;;;10272949;28;20522;-66
2021/10/19 06:48:26;;;;;;;49.80;23.10;;;;;;;;;;10295417;28;20068;-66
2021/10/19 06:53:24;;;;;;;39.55;22.35;;;;;;;;;;10293846;28;20067;-66
2021/10/19 06:58:24;;;;;;;39.53;20.00;;;;;;;;;;10298999;28;20071;-65
2021/10/19 07:03:24;;;;;;;33.65;19.45;;;;;;;;;;10311912;28;20110;-66
2021/10/19 07:08:24;;;;;;;41.55;20.17;;;;;;;;;;10310964;28;20079;-65
2021/10/19 07:13:23;;;;;;;42.80;20.98;;;;;;;;;;10300245;28;20053;-65
2021/10/19 07:18:23;;;;;;;48.90;23.63;;;;;;;;;;10310676;28;20075;-66
2021/10/19 07:23:21;;;;;;;38.30;24.13;;;;;;;;;;10308736;28;20040;-65
2021/10/19 07:28:21;;;;;;;19.27;14.35;;;;;;;;;;10312122;28;20065;-66
2021/10/19 07:33:20;;;;;;;21.88;14.52;;;;;;;;;;10312138;28;20079;-66
2021/10/19 07:38:19;;;;;;;17.58;12.55;;;;;;;;;;10311839;28;20523;-66
2021/10/19 07:43:17;;;;;;;16.40;12.75;;;;;;;;;;10300700;28;20064;-66
2021/10/19 07:48:16;;;;;;;12.88;11.20;;;;;;;;;;10316264;28;20532;-66
2021/10/19 07:53:15;;;;;;;18.08;13.40;;;;;;;;;;10311643;28;20059;-66
2021/10/19 07:58:15;;;;;;;20.90;14.50;;;;;;;;;;10295595;28;20056;-66
2021/10/19 08:03:13;;;;;;;22.95;16.45;;;;;;;;;;10317784;28;20063;-66
2021/10/19 08:08:14;;;;;;;17.95;15.15;;;;;;;;;;10317043;28;20064;-66
2021/10/19 08:13:13;;;;;;;18.05;15.15;;;;;;;;;;10305206;28;20493;-67
2021/10/19 08:18:12;;;;;;;25.38;16.83;;;;;;;;;;10302159;28;20068;-67
2021/10/19 08:23:12;;;;;;;26.52;21.38;;;;;;;;;;10304325;28;20072;-67
2021/10/19 08:28:10;;;;;;;20.83;16.02;;;;;;;;;;10314944;28;20075;-66
2021/10/19 08:33:09;;;;;;;19.63;14.40;;;;;;;;;;10317286;28;20524;-67
2021/10/19 08:38:07;;;;;;;14.98;10.75;;;;;;;;;;10315901;28;20076;-67
2021/10/19 08:43:07;;;;;;;13.38;11.13;;;;;;;;;;10305735;28;20159;-66
2021/10/19 08:48:07;;;;;;;12.80;11.50;;;;;;;;;;10316005;28;20509;-66
2021/10/19 08:53:06;;;;;;;14.45;12.95;;;;;;;;;;10312151;28;20071;-66
2021/10/19 08:58:04;;;;;;;11.30;10.07;;;;;;;;;;10296416;28;20173;-67
2021/10/19 09:03:04;;;;;;;10.88;9.77;;;;;;;;;;10316349;28;20481;-67
2021/10/19 09:08:07;;;;;;;19.45;14.45;;;;;;;;;;10315617;28;20541;-67
2021/10/19 09:13:06;;;;;;;12.13;10.35;;;;;;;;;;10304448;28;20461;-67
2021/10/19 09:18:08;;;;;;;12.77;9.43;;;;;;;;;;10291567;28;20068;-66
2021/10/19 09:23:07;;;;;;;12.65;11.38;;;;;;;;;;10297381;28;20457;-67
2021/10/19 09:28:07;;;;;;;10.93;9.82;;;;;;;;;;10298143;28;20079;-67
2021/10/19 09:33:08;;;;;;;12.85;10.63;;;;;;;;;;10301436;28;20477;-67
2021/10/19 09:38:09;;;;;;;16.65;10.57;;;;;;;;;;10297553;28;20087;-67
2021/10/19 09:43:09;;;;;;;22.90;19.00;;;;;;;;;;10298423;28;20078;-67
2021/10/19 09:48:09;;;;;;;21.67;18.83;;;;;;;;;;10297494;28;20064;-67
2021/10/19 09:53:08;;;;;;;14.73;12.95;;;;;;;;;;10301609;28;20060;-66
2021/10/19 09:58:06;;;;;;;38.42;31.25;;;;;;;;;;10298218;28;20435;-67
2021/10/19 10:03:05;;;;;;;30.05;25.60;;;;;;;;;;10296822;28;20056;-66
2021/10/19 10:08:06;;;;;;;21.85;19.40;;;;;;;;;;10296015;28;20072;-66
2021/10/19 10:13:05;;;;;;;14.05;11.30;;;;;;;;;;10297536;28;20079;-66
2021/10/19 10:18:05;;;;;;;12.30;10.48;;;;;;;;;;10296676;28;20060;-66
2021/10/19 10:23:21;;;;;;;23.83;21.33;;;;;;;;;;10296695;28;20103;-66
2021/10/19 10:28:26;;;;;;;14.07;9.90;;;;;;;;;;10300510;28;20076;-66
2021/10/19 10:33:34;;;;;;;12.30;9.82;;;;;;;;;;10289902;28;20080;-66
2021/10/19 10:38:34;;;;;;;11.85;10.57;;;;;;;;;;10268075;28;20091;-67
2021/10/19 10:43:35;;;;;;;12.15;10.77;;;;;;;;;;10311875;28;20425;-67
2021/10/19 10:48:34;;;;;;;12.98;10.77;;;;;;;;;;10310794;28;20079;-67
2021/10/19 10:53:35;;;;;;;11.63;10.43;;;;;;;;;;10298468;28;20075;-66
2021/10/19 10:58:35;;;;;;;14.60;11.23;;;;;;;;;;10311170;28;20079;-66
2021/10/19 11:03:33;;;;;;;12.48;10.73;;;;;;;;;;10309655;28;20490;-67
2021/10/19 11:08:32;;;;;;;11.63;10.30;;;;;;;;;;10296252;28;20112;-67
2021/10/19 11:13:32;;;;;;;11.27;10.15;;;;;;;;;;10293290;28;20083;-66
2021/10/19 11:18:31;;;;;;;16.58;9.95;;;;;;;;;;10296225;28;20068;-67
2021/10/19 11:23:29;;;;;;;12.32;9.70;;;;;;;;;;10304960;28;20063;-67
2021/10/19 11:28:27;;;;;;;14.43;11.20;;;;;;;;;;10305211;28;20064;-67
2021/10/19 11:33:27;;;;;;;11.20;9.55;;;;;;;;;;10305170;28;20060;-67
2021/10/19 11:38:32;;;;;;;13.63;9.98;;;;;;;;;;10303106;28;20481;-67
2021/10/19 11:43:30;;;;;;;13.05;9.88;;;;;;;;;;10303210;28;20076;-67
2021/10/19 11:48:30;;;;;;;14.93;9.05;;;;;;;;;;10302080;28;20078;-67
2021/10/19 11:53:29;;;;;;;12.25;9.90;;;;;;;;;;10303149;28;20052;-67
2021/10/19 11:58:27;;;;;;;17.20;12.63;;;;;;;;;;10305280;28;20064;-67
2021/10/19 12:03:31;;;;;;;15.75;11.38;;;;;;;;;;10305112;28;20076;-67
2021/10/19 12:08:30;;;;;;;10.30;9.20;;;;;;;;;;10303452;28;20075;-67
2021/10/19 12:13:28;;;;;;;15.23;9.60;;;;;;;;;;10303567;28;20071;-67
2021/10/19 12:18:26;;;;;;;11.88;9.80;;;;;;;;;;10297234;28;20467;-67
2021/10/19 12:23:27;;;;;;;13.82;10.88;;;;;;;;;;10301548;28;20056;-67
2021/10/19 12:28:26;;;;;;;13.20;8.85;;;;;;;;;;10298595;28;20072;-68
2021/10/19 12:33:30;;;;;;;14.00;9.52;;;;;;;;;;10301470;28;20079;-67
2021/10/19 12:38:31;;;;;;;11.07;9.15;;;;;;;;;;10295228;28;20084;-67
2021/10/19 12:43:30;;;;;;;9.15;8.20;;;;;;;;;;10300169;28;20071;-67
2021/10/19 12:48:33;;;;;;;9.73;8.73;;;;;;;;;;10296874;28;20080;-67
2021/10/19 12:53:33;;;;;;;15.00;8.10;;;;;;;;;;10297983;28;20080;-67
2021/10/19 12:58:32;;;;;;;11.38;7.60;;;;;;;;;;10296188;28;20517;-67
2021/10/19 13:03:30;;;;;;;11.48;9.10;;;;;;;;;;10302656;28;20060;-67
2021/10/19 13:08:29;;;;;;;11.48;10.35;;;;;;;;;;10299019;28;20536;-68
2021/10/19 13:13:28;;;;;;;12.13;10.68;;;;;;;;;;10302905;28;20068;-67
2021/10/19 13:18:27;;;;;;;21.25;12.93;;;;;;;;;;10297970;28;20072;-67
2021/10/19 13:23:27;;;;;;;14.35;11.20;;;;;;;;;;10297730;28;20466;-65
2021/10/19 13:28:26;;;;;;;16.55;12.88;;;;;;;;;;10301235;28;20063;-66
2021/10/19 13:33:30;;;;;;;12.82;11.43;;;;;;;;;;10300330;28;20056;-65
2021/10/19 13:38:28;;;;;;;22.35;14.98;;;;;;;;;;10301827;28;20123;-66
2021/10/19 13:43:28;;;;;;;20.30;14.02;;;;;;;;;;10297831;28;20124;-65
2021/10/19 13:48:26;;;;;;;25.35;21.13;;;;;;;;;;10297207;28;20067;-66
2021/10/19 13:53:27;;;;;;;14.93;11.63;;;;;;;;;;10297181;28;20064;-65
2021/10/19 13:58:27;;;;;;;21.15;15.05;;;;;;;;;;10289282;28;20136;-66
2021/10/19 14:03:26;;;;;;;29.02;19.00;;;;;;;;;;10294521;28;20071;-65
2021/10/19 14:08:26;;;;;;;25.23;21.13;;;;;;;;;;10295994;28;20067;-65
2021/10/19 14:13:25;;;;;;;16.02;11.38;;;;;;;;;;10298983;28;20106;-67
2021/10/19 14:18:24;;;;;;;13.55;10.02;;;;;;;;;;10297042;28;20064;-66
2021/10/19 14:23:22;;;;;;;12.38;9.02;;;;;;;;;;10300799;28;20485;-66
2021/10/19 14:28:22;;;;;;;12.32;10.15;;;;;;;;;;10295805;28;20071;-66
2021/10/19 14:33:21;;;;;;;15.55;12.32;;;;;;;;;;10291035;28;20068;-67
2021/10/19 14:38:20;;;;;;;24.38;16.50;;;;;;;;;;10267228;28;20080;-65
2021/10/19 14:43:18;;;;;;;23.73;17.38;;;;;;;;;;10311405;28;20479;-64
2021/10/19 14:48:18;;;;;;;22.58;19.00;;;;;;;;;;10310871;28;20064;-65
2021/10/19 14:53:16;;;;;;;24.65;20.85;;;;;;;;;;10294128;28;20067;-66
2021/10/19 14:58:15;;;;;;;27.25;18.23;;;;;;;;;;10290365;28;20457;-65
2021/10/19 15:03:13;;;;;;;26.80;17.70;;;;;;;;;;10294421;28;20064;-66
2021/10/19 15:08:12;;;;;;;23.65;15.10;;;;;;;;;;10297908;28;20060;-66
2021/10/19 15:13:11;;;;;;;13.75;11.07;;;;;;;;;;10292763;28;20476;-65
2021/10/19 15:18:10;;;;;;;16.40;12.38;;;;;;;;;;10300222;28;20071;-66
2021/10/19 15:23:09;;;;;;;13.85;11.43;;;;;;;;;;10297567;28;20052;-66
2021/10/19 15:28:08;;;;;;;12.93;9.77;;;;;;;;;;10297176;28;20068;-66
2021/10/19 15:33:07;;;;;;;14.10;10.40;;;;;;;;;;10309423;28;20075;-66
2021/10/19 15:38:05;;;;;;;23.52;18.52;;;;;;;;;;10311310;28;20068;-66
2021/10/19 15:43:04;;;;;;;42.25;33.67;;;;;;;;;;10297263;28;21092;-66
2021/10/19 15:48:04;;;;;;;20.85;17.65;;;;;;;;;;10308979;28;20067;-66
2021/10/19 15:53:03;;;;;;;31.20;26.35;;;;;;;;;;10311130;28;20517;-66
2021/10/19 15:58:01;;;;;;;34.78;22.13;;;;;;;;;;10305277;28;20067;-66
2021/10/19 16:03:00;;;;;;;15.63;13.98;;;;;;;;;;10297377;28;20079;-66
2021/10/19 16:08:00;;;;;;;16.05;12.70;;;;;;;;;;10303377;28;20060;-66
2021/10/19 16:13:00;;;;;;;25.38;12.65;;;;;;;;;;10302960;28;20060;-66
2021/10/19 16:17:58;;;;;;;16.67;12.75;;;;;;;;;;10303933;28;20076;-66
2021/10/19 16:22:57;;;;;;;17.83;15.35;;;;;;;;;;10304317;28;20064;-66
2021/10/19 16:27:56;;;;;;;33.75;26.05;;;;;;;;;;10304437;28;20060;-66
2021/10/19 16:32:54;;;;;;;74.70;49.28;;;;;;;;;;10298810;28;20075;-65
2021/10/19 16:37:53;;;;;;;54.55;28.33;;;;;;;;;;10301899;28;20072;-65
2021/10/19 16:42:52;;;;;;;30.98;22.77;;;;;;;;;;10316664;28;20075;-65
2021/10/19 16:47:51;;;;;;;43.35;31.90;;;;;;;;;;10316404;28;20079;-66
2021/10/19 16:52:50;;;;;;;60.55;45.53;;;;;;;;;;10301469;28;20081;-65
2021/10/19 16:57:48;;;;;;;64.28;49.08;;;;;;;;;;10300856;28;20061;-65
2021/10/19 17:02:46;;;;;;;54.97;41.72;;;;;;;;;;10299812;28;20528;-65
2021/10/19 17:07:47;;;;;;;53.90;39.05;;;;;;;;;;10297880;28;20073;-65
2021/10/19 17:12:45;;;;;;;28.80;25.80;;;;;;;;;;10314980;28;20074;-65
2021/10/19 17:17:44;;;;;;;23.65;21.13;;;;;;;;;;10313520;28;20067;-65
2021/10/19 17:22:42;;;;;;;23.55;18.90;;;;;;;;;;10316002;28;20079;-65
2021/10/19 17:27:42;;;;;;;18.58;15.52;;;;;;;;;;10316182;28;20075;-65
2021/10/19 17:32:40;;;;;;;18.95;16.95;;;;;;;;;;10300925;28;20076;-64
2021/10/19 17:37:38;;;;;;;39.80;32.90;;;;;;;;;;10315325;28;20096;-64
2021/10/19 17:42:36;;;;;;;32.75;23.00;;;;;;;;;;10298602;28;20068;-64
2021/10/19 17:47:36;;;;;;;63.65;44.67;;;;;;;;;;10296198;28;20075;-62
2021/10/19 17:52:34;;;;;;;168.13;109.00;;;;;;;;;;10291943;28;20158;-64
2021/10/19 17:57:33;;;;;;;137.73;93.00;;;;;;;;;;10299860;28;20071;-65
2021/10/19 18:02:31;;;;;;;55.33;40.33;;;;;;;;;;10288394;28;20060;-65
2021/10/19 18:07:34;;;;;;;73.95;52.78;;;;;;;;;;10269684;28;20092;-65
2021/10/19 18:12:33;;;;;;;39.60;31.45;;;;;;;;;;10294032;28;20076;-65
2021/10/19 18:17:32;;;;;;;28.50;23.58;;;;;;;;;;10309272;28;20528;-65
2021/10/19 18:22:30;;;;;;;25.20;22.50;;;;;;;;;;10277834;28;20455;-65
2021/10/19 18:27:30;;;;;;;27.00;24.02;;;;;;;;;;10295275;28;20063;-64
2021/10/19 18:32:28;;;;;;;26.20;23.35;;;;;;;;;;10296765;28;20504;-64
2021/10/19 18:37:26;;;;;;;24.83;22.17;;;;;;;;;;10242294;28;20514;-64
2021/10/19 18:42:25;;;;;;;24.45;20.17;;;;;;;;;;10232631;28;20088;-64
2021/10/19 18:47:24;;;;;;;24.98;21.60;;;;;;;;;;10280770;28;20079;-65
2021/10/19 18:52:23;;;;;;;24.02;20.02;;;;;;;;;;10294679;28;20080;-64
2021/10/19 18:57:22;;;;;;;29.83;26.10;;;;;;;;;;10286710;28;20075;-65
2021/10/19 19:02:20;;;;;;;33.78;27.70;;;;;;;;;;10292688;28;20067;-65
2021/10/19 19:07:20;;;;;;;30.05;23.92;;;;;;;;;;10291449;28;20048;-65
2021/10/19 19:12:19;;;;;;;24.77;21.58;;;;;;;;;;10279970;28;20103;-65
2021/10/19 19:17:17;;;;;;;26.85;22.95;;;;;;;;;;10278193;28;20071;-64
2021/10/19 19:22:20;;;;;;;25.48;22.35;;;;;;;;;;10295772;28;20525;-64
2021/10/19 19:27:19;;;;;;;29.83;23.35;;;;;;;;;;10276464;28;20498;-65
2021/10/19 19:32:17;;;;;;;24.15;20.58;;;;;;;;;;10289215;28;20072;-65
2021/10/19 19:37:15;;;;;;;29.45;22.25;;;;;;;;;;10292545;28;20087;-65
2021/10/19 19:42:15;;;;;;;24.92;21.02;;;;;;;;;;10283119;28;20516;-64
2021/10/19 19:47:21;;;;;;;26.30;22.08;;;;;;;;;;10282817;28;20478;-64
2021/10/19 19:52:21;;;;;;;28.83;23.40;;;;;;;;;;10282465;28;20080;-65
2021/10/19 19:57:27;;;;;;;36.17;28.65;;;;;;;;;;10281846;28;20080;-63
2021/10/19 20:02:27;;;;;;;26.83;23.60;;;;;;;;;;10282446;28;20087;-64
2021/10/19 20:07:26;;;;;;;26.35;22.85;;;;;;;;;;10286663;28;20482;-64
2021/10/19 20:12:25;;;;;;;25.52;22.48;;;;;;;;;;10301896;28;20068;-64
2021/10/19 20:17:25;;;;;;;29.67;22.83;;;;;;;;;;10286688;28;20557;-65
2021/10/19 20:22:24;;;;;;;27.77;24.75;;;;;;;;;;10305692;28;20056;-64
2021/10/19 20:27:22;;;;;;;22.13;19.80;;;;;;;;;;10293238;28;20068;-64
2021/10/19 20:32:25;;;;;;;21.05;19.00;;;;;;;;;;10275415;28;20069;-65
2021/10/19 20:37:26;;;;;;;22.27;19.35;;;;;;;;;;10270918;28;20484;-62
2021/10/19 20:42:24;;;;;;;22.27;19.23;;;;;;;;;;10298256;28;20083;-65
2021/10/19 20:47:23;;;;;;;20.75;18.65;;;;;;;;;;10301394;28;20053;-63
2021/10/19 20:52:22;;;;;;;22.20;19.88;;;;;;;;;;10303399;28;20079;-64
2021/10/19 20:57:22;;;;;;;21.88;19.67;;;;;;;;;;10305658;28;20075;-64
2021/10/19 21:02:20;;;;;;;21.52;19.25;;;;;;;;;;10301633;28;20075;-65
2021/10/19 21:07:18;;;;;;;21.27;19.02;;;;;;;;;;10299335;28;20064;-64
2021/10/19 21:12:17;;;;;;;25.52;21.00;;;;;;;;;;10300213;28;20076;-63
2021/10/19 21:17:16;;;;;;;22.52;19.50;;;;;;;;;;10285583;28;20114;-63
2021/10/19 21:22:15;;;;;;;22.00;19.65;;;;;;;;;;10300044;28;20548;-64
2021/10/19 21:27:13;;;;;;;25.45;20.52;;;;;;;;;;10291104;28;20470;-64
2021/10/19 21:32:11;;;;;;;21.75;18.52;;;;;;;;;;10284137;28;20068;-63
2021/10/19 21:37:11;;;;;;;23.27;19.42;;;;;;;;;;10285669;28;20064;-64
2021/10/19 21:42:10;;;;;;;21.63;19.35;;;;;;;;;;10277257;28;20076;-64
2021/10/19 21:47:08;;;;;;;22.40;18.95;;;;;;;;;;10302499;28;20075;-64
2021/10/19 21:52:06;;;;;;;20.33;17.52;;;;;;;;;;10315191;28;20079;-64
2021/10/19 21:57:06;;;;;;;20.40;18.30;;;;;;;;;;10316328;28;20071;-64
2021/10/19 22:02:04;;;;;;;21.27;18.52;;;;;;;;;;10313528;28;20068;-64
2021/10/19 22:07:03;;;;;;;22.10;19.65;;;;;;;;;;10315730;28;20060;-64
2021/10/19 22:12:01;;;;;;;20.00;17.90;;;;;;;;;;10298707;28;20083;-64
2021/10/19 22:17:02;;;;;;;20.45;18.33;;;;;;;;;;10313229;28;20078;-64
2021/10/19 22:22:01;;;;;;;22.60;18.42;;;;;;;;;;10314504;28;20064;-64
2021/10/19 22:26:59;;;;;;;22.02;19.45;;;;;;;;;;10304809;28;20083;-65
2021/10/19 22:31:57;;;;;;;22.17;19.88;;;;;;;;;;10304780;28;20072;-64
2021/10/19 22:36:57;;;;;;;23.48;20.05;;;;;;;;;;10250633;28;20410;-64
2021/10/19 22:41:56;;;;;;;26.92;19.80;;;;;;;;;;10235888;28;20057;-62
2021/10/19 22:46:54;;;;;;;21.75;19.48;;;;;;;;;;10287763;28;20076;-64
2021/10/19 22:51:53;;;;;;;19.77;17.67;;;;;;;;;;10309129;28;20064;-63
2021/10/19 22:56:52;;;;;;;23.05;19.02;;;;;;;;;;10313176;28;20068;-64
2021/10/19 23:01:50;;;;;;;21.55;19.25;;;;;;;;;;10303644;28;20076;-64
2021/10/19 23:06:50;;;;;;;21.38;19.23;;;;;;;;;;10298172;28;20462;-64
2021/10/19 23:11:48;;;;;;;21.58;19.25;;;;;;;;;;10297454;28;20076;-64
2021/10/19 23:16:48;;;;;;;20.65;18.15;;;;;;;;;;10299454;28;20091;-64
2021/10/19 23:21:46;;;;;;;21.70;17.50;;;;;;;;;;10318173;28;20047;-64
2021/10/19 23:26:45;;;;;;;18.67;16.75;;;;;;;;;;10320468;28;20052;-65
2021/10/19 23:31:43;;;;;;;19.58;17.50;;;;;;;;;;10310957;28;20053;-64
2021/10/19 23:36:43;;;;;;;20.38;17.38;;;;;;;;;;10307658;28;20493;-64
2021/10/19 23:41:41;;;;;;;20.75;17.25;;;;;;;;;;10306211;28;20463;-65
2021/10/19 23:46:39;;;;;;;21.15;17.60;;;;;;;;;;10306128;28;20076;-63
2021/10/19 23:51:38;;;;;;;19.75;17.75;;;;;;;;;;10305120;28;20466;-64
2021/10/19 23:56:37;;;;;;;21.63;19.33;;;;;;;;;;10302197;28;20068;-64
